sensor_id;sensor_type;location;lat;lon;timestamp;temperature;humidity
19397;DHT22;9834;48.076;11.878;2022-12-18T00:00:43;-4.70;99.90
19397;DHT22;9834;48.076;11.878;2022-12-18T00:03:12;-5.00;99.90
19397;DHT22;9834;48.076;11.878;2022-12-18T00:05:47;-4.80;99.90
19397;DHT22;9834;48.076;11.878;2022-12-18T00:08:14;-4.90;99.90
19397;DHT22;9834;48.076;11.878;2022-12-18T00:10:42;-5.00;99.90
19397;DHT22;9834;48.076;11.878;2022-12-18T00:13:09;-5.00;99.90
19397;DHT22;9834;48.076;11.878;2022-12-18T00:15:38;-5.00;99.90
19397;DHT22;9834;48.076;11.878;2022-12-18T00:18:06;-4.80;99.90
19397;DHT22;9834;48.076;11.878;2022-12-18T00:20:36;-5.00;99.90
19397;DHT22;9834;48.076;11.878;2022-12-18T00:23:05;-5.00;99.90
19397;DHT22;9834;48.076;11.878;2022-12-18T00:25:33;-5.00;99.90
19397;DHT22;9834;48.076;11.878;2022-12-18T00:28:01;-5.00;99.90
19397;DHT22;9834;48.076;11.878;2022-12-18T00:30:28;-4.60;99.90
19397;DHT22;9834;48.076;11.878;2022-12-18T00:32:55;-4.90;99.90
19397;DHT22;9834;48.076;11.878;2022-12-18T00:35:22;-5.00;99.90
19397;DHT22;9834;48.076;11.878;2022-12-18T00:37:49;-4.70;99.90
19397;DHT22;9834;48.076;11.878;2022-12-18T00:40:17;-4.90;99.90
19397;DHT22;9834;48.076;11.878;2022-12-18T00:42:44;-4.90;99.90
19397;DHT22;9834;48.076;11.878;2022-12-18T00:45:23;-4.90;99.90
19397;DHT22;9834;48.076;11.878;2022-12-18T00:47:50;-4.80;99.90
19397;DHT22;9834;48.076;11.878;2022-12-18T00:50:17;-4.80;99.90
19397;DHT22;9834;48.076;11.878;2022-12-18T00:52:44;-4.90;99.90
19397;DHT22;9834;48.076;11.878;2022-12-18T00:55:12;-4.70;99.90
19397;DHT22;9834;48.076;11.878;2022-12-18T00:57:41;-4.70;99.90
19397;DHT22;9834;48.076;11.878;2022-12-18T01:00:11;-4.70;99.90
19397;DHT22;9834;48.076;11.878;2022-12-18T01:02:39;-4.60;99.90
19397;DHT22;9834;48.076;11.878;2022-12-18T01:05:06;-4.60;99.90
19397;DHT22;9834;48.076;11.878;2022-12-18T01:07:34;-4.50;99.90
19397;DHT22;9834;48.076;11.878;2022-12-18T01:10:01;-4.40;99.90
19397;DHT22;9834;48.076;11.878;2022-12-18T01:12:28;-4.50;99.90
19397;DHT22;9834;48.076;11.878;2022-12-18T01:14:56;-4.50;99.90
19397;DHT22;9834;48.076;11.878;2022-12-18T01:17:24;-4.10;99.90
19397;DHT22;9834;48.076;11.878;2022-12-18T01:19:50;-4.50;99.90
19397;DHT22;9834;48.076;11.878;2022-12-18T01:22:18;-4.60;99.90
19397;DHT22;9834;48.076;11.878;2022-12-18T01:24:45;-4.60;99.90
19397;DHT22;9834;48.076;11.878;2022-12-18T01:27:12;-4.60;99.90
19397;DHT22;9834;48.076;11.878;2022-12-18T01:29:39;-4.60;99.90
19397;DHT22;9834;48.076;11.878;2022-12-18T01:32:09;-4.50;99.90
19397;DHT22;9834;48.076;11.878;2022-12-18T01:34:36;-3.50;99.90
19397;DHT22;9834;48.076;11.878;2022-12-18T01:37:04;-4.60;99.90
19397;DHT22;9834;48.076;11.878;2022-12-18T01:39:31;-4.60;99.90
19397;DHT22;9834;48.076;11.878;2022-12-18T01:41:59;-4.60;99.90
19397;DHT22;9834;48.076;11.878;2022-12-18T01:45:05;-4.60;99.90
19397;DHT22;9834;48.076;11.878;2022-12-18T01:47:39;-4.60;99.90
19397;DHT22;9834;48.076;11.878;2022-12-18T01:50:12;-4.50;99.90
19397;DHT22;9834;48.076;11.878;2022-12-18T01:52:41;-4.40;99.90
19397;DHT22;9834;48.076;11.878;2022-12-18T01:55:09;-4.30;99.90
19397;DHT22;9834;48.076;11.878;2022-12-18T01:57:38;-4.40;99.90
19397;DHT22;9834;48.076;11.878;2022-12-18T02:00:09;-4.40;99.90
19397;DHT22;9834;48.076;11.878;2022-12-18T02:02:37;-4.40;99.90
19397;DHT22;9834;48.076;11.878;2022-12-18T02:05:06;-4.40;99.90
19397;DHT22;9834;48.076;11.878;2022-12-18T02:07:40;-4.50;99.90
19397;DHT22;9834;48.076;11.878;2022-12-18T02:10:15;-4.50;99.90
19397;DHT22;9834;48.076;11.878;2022-12-18T02:12:49;-4.50;99.90
19397;DHT22;9834;48.076;11.878;2022-12-18T02:15:25;-4.50;99.90
19397;DHT22;9834;48.076;11.878;2022-12-18T02:18:00;-4.40;99.90
19397;DHT22;9834;48.076;11.878;2022-12-18T02:20:33;-4.30;99.90
19397;DHT22;9834;48.076;11.878;2022-12-18T02:23:08;-4.50;99.90
19397;DHT22;9834;48.076;11.878;2022-12-18T02:26:13;-4.50;99.90
19397;DHT22;9834;48.076;11.878;2022-12-18T02:28:43;-4.50;99.90
19397;DHT22;9834;48.076;11.878;2022-12-18T02:31:14;-4.50;99.90
19397;DHT22;9834;48.076;11.878;2022-12-18T02:33:45;-4.40;99.90
19397;DHT22;9834;48.076;11.878;2022-12-18T02:36:13;-4.50;99.90
19397;DHT22;9834;48.076;11.878;2022-12-18T02:38:42;-4.50;99.90
19397;DHT22;9834;48.076;11.878;2022-12-18T02:41:11;-4.50;99.90
19397;DHT22;9834;48.076;11.878;2022-12-18T02:43:40;-4.50;99.90
19397;DHT22;9834;48.076;11.878;2022-12-18T02:46:35;-4.50;99.90
19397;DHT22;9834;48.076;11.878;2022-12-18T02:49:10;-4.60;99.90
19397;DHT22;9834;48.076;11.878;2022-12-18T02:51:47;-4.50;99.90
19397;DHT22;9834;48.076;11.878;2022-12-18T02:54:23;-4.50;99.90
19397;DHT22;9834;48.076;11.878;2022-12-18T02:56:58;-4.50;99.90
19397;DHT22;9834;48.076;11.878;2022-12-18T02:59:32;-4.50;99.90
19397;DHT22;9834;48.076;11.878;2022-12-18T03:02:05;-4.50;99.90
19397;DHT22;9834;48.076;11.878;2022-12-18T03:04:38;-4.30;99.90
19397;DHT22;9834;48.076;11.878;2022-12-18T03:07:10;-4.50;99.90
19397;DHT22;9834;48.076;11.878;2022-12-18T03:09:42;-4.60;99.90
19397;DHT22;9834;48.076;11.878;2022-12-18T03:12:16;-4.50;99.90
19397;DHT22;9834;48.076;11.878;2022-12-18T03:14:54;-4.50;99.90
19397;DHT22;9834;48.076;11.878;2022-12-18T03:17:25;-4.50;99.90
19397;DHT22;9834;48.076;11.878;2022-12-18T03:19:56;-4.60;99.90
19397;DHT22;9834;48.076;11.878;2022-12-18T03:22:27;-4.60;99.90
19397;DHT22;9834;48.076;11.878;2022-12-18T03:24:57;-4.60;99.90
19397;DHT22;9834;48.076;11.878;2022-12-18T03:27:29;-4.60;99.90
19397;DHT22;9834;48.076;11.878;2022-12-18T03:30:01;-4.60;99.90
19397;DHT22;9834;48.076;11.878;2022-12-18T03:32:36;-4.60;99.90
19397;DHT22;9834;48.076;11.878;2022-12-18T03:35:06;-4.60;99.90
19397;DHT22;9834;48.076;11.878;2022-12-18T03:37:34;-4.60;99.90
19397;DHT22;9834;48.076;11.878;2022-12-18T03:40:01;-4.60;99.90
19397;DHT22;9834;48.076;11.878;2022-12-18T03:42:34;-4.60;99.90
19397;DHT22;9834;48.076;11.878;2022-12-18T03:45:08;-4.60;99.90
19397;DHT22;9834;48.076;11.878;2022-12-18T03:47:41;-4.60;99.90
19397;DHT22;9834;48.076;11.878;2022-12-18T03:50:12;-4.60;99.90
19397;DHT22;9834;48.076;11.878;2022-12-18T03:52:46;-4.60;99.90
19397;DHT22;9834;48.076;11.878;2022-12-18T03:55:16;-4.60;99.90
19397;DHT22;9834;48.076;11.878;2022-12-18T03:57:46;-4.60;99.90
19397;DHT22;9834;48.076;11.878;2022-12-18T04:00:17;-4.60;99.90
19397;DHT22;9834;48.076;11.878;2022-12-18T04:02:46;-4.60;99.90
19397;DHT22;9834;48.076;11.878;2022-12-18T04:05:16;-4.30;99.90
19397;DHT22;9834;48.076;11.878;2022-12-18T04:07:45;-4.50;99.90
19397;DHT22;9834;48.076;11.878;2022-12-18T04:10:14;-4.50;99.90
19397;DHT22;9834;48.076;11.878;2022-12-18T04:12:42;-4.60;99.90
19397;DHT22;9834;48.076;11.878;2022-12-18T04:15:11;-4.60;99.90
19397;DHT22;9834;48.076;11.878;2022-12-18T04:17:41;-4.60;99.90
19397;DHT22;9834;48.076;11.878;2022-12-18T04:20:10;-4.60;99.90
19397;DHT22;9834;48.076;11.878;2022-12-18T04:22:37;-4.60;99.90
19397;DHT22;9834;48.076;11.878;2022-12-18T04:25:05;-4.60;99.90
19397;DHT22;9834;48.076;11.878;2022-12-18T04:27:32;-4.60;99.90
19397;DHT22;9834;48.076;11.878;2022-12-18T04:29:59;-4.60;99.90
19397;DHT22;9834;48.076;11.878;2022-12-18T04:32:27;-4.60;99.90
19397;DHT22;9834;48.076;11.878;2022-12-18T04:34:54;-4.00;99.90
19397;DHT22;9834;48.076;11.878;2022-12-18T04:37:21;-4.50;99.90
19397;DHT22;9834;48.076;11.878;2022-12-18T04:39:48;-4.60;99.90
19397;DHT22;9834;48.076;11.878;2022-12-18T04:42:15;-4.50;99.90
19397;DHT22;9834;48.076;11.878;2022-12-18T04:44:42;-4.60;99.90
19397;DHT22;9834;48.076;11.878;2022-12-18T04:47:10;-4.50;99.90
19397;DHT22;9834;48.076;11.878;2022-12-18T04:49:38;-4.50;99.90
19397;DHT22;9834;48.076;11.878;2022-12-18T04:52:05;-4.30;99.90
19397;DHT22;9834;48.076;11.878;2022-12-18T04:54:32;-4.00;99.90
19397;DHT22;9834;48.076;11.878;2022-12-18T04:56:59;-3.80;99.90
19397;DHT22;9834;48.076;11.878;2022-12-18T04:59:26;-4.50;99.90
19397;DHT22;9834;48.076;11.878;2022-12-18T05:01:53;-4.50;99.90
19397;DHT22;9834;48.076;11.878;2022-12-18T05:04:20;-4.50;99.90
19397;DHT22;9834;48.076;11.878;2022-12-18T05:06:48;-4.50;99.90
19397;DHT22;9834;48.076;11.878;2022-12-18T05:09:15;-4.60;99.90
19397;DHT22;9834;48.076;11.878;2022-12-18T05:11:42;-4.60;99.90
19397;DHT22;9834;48.076;11.878;2022-12-18T05:14:09;-4.50;99.90
19397;DHT22;9834;48.076;11.878;2022-12-18T05:16:36;-4.60;99.90
19397;DHT22;9834;48.076;11.878;2022-12-18T05:19:03;-4.30;99.90
19397;DHT22;9834;48.076;11.878;2022-12-18T05:21:31;-4.60;99.90
19397;DHT22;9834;48.076;11.878;2022-12-18T05:23:59;-4.70;99.90
19397;DHT22;9834;48.076;11.878;2022-12-18T05:26:26;-4.60;99.90
19397;DHT22;9834;48.076;11.878;2022-12-18T05:28:53;-4.60;99.90
19397;DHT22;9834;48.076;11.878;2022-12-18T05:31:20;-4.50;99.90
19397;DHT22;9834;48.076;11.878;2022-12-18T05:33:49;-4.60;99.90
19397;DHT22;9834;48.076;11.878;2022-12-18T05:36:15;-4.50;99.90
19397;DHT22;9834;48.076;11.878;2022-12-18T05:38:42;-4.60;99.90
19397;DHT22;9834;48.076;11.878;2022-12-18T05:41:11;-4.70;99.90
19397;DHT22;9834;48.076;11.878;2022-12-18T05:43:40;-4.70;99.90
19397;DHT22;9834;48.076;11.878;2022-12-18T05:46:09;-4.70;99.90
19397;DHT22;9834;48.076;11.878;2022-12-18T05:48:38;-4.70;99.90
19397;DHT22;9834;48.076;11.878;2022-12-18T05:51:06;-4.40;99.90
19397;DHT22;9834;48.076;11.878;2022-12-18T05:53:34;-4.70;99.90
19397;DHT22;9834;48.076;11.878;2022-12-18T05:56:03;-4.50;99.90
19397;DHT22;9834;48.076;11.878;2022-12-18T05:58:32;-4.70;99.90
19397;DHT22;9834;48.076;11.878;2022-12-18T06:01:07;-4.80;99.90
19397;DHT22;9834;48.076;11.878;2022-12-18T06:03:34;-4.80;99.90
19397;DHT22;9834;48.076;11.878;2022-12-18T06:06:01;-4.80;99.90
19397;DHT22;9834;48.076;11.878;2022-12-18T06:08:28;-4.80;99.90
19397;DHT22;9834;48.076;11.878;2022-12-18T06:10:55;-4.80;99.90
19397;DHT22;9834;48.076;11.878;2022-12-18T06:13:22;-4.80;99.90
19397;DHT22;9834;48.076;11.878;2022-12-18T06:15:51;-4.90;99.90
19397;DHT22;9834;48.076;11.878;2022-12-18T06:18:18;-4.90;99.90
19397;DHT22;9834;48.076;11.878;2022-12-18T06:20:45;-4.40;99.90
19397;DHT22;9834;48.076;11.878;2022-12-18T06:23:12;-4.50;99.90
19397;DHT22;9834;48.076;11.878;2022-12-18T06:25:39;-4.70;99.90
19397;DHT22;9834;48.076;11.878;2022-12-18T06:28:06;-4.50;99.90
19397;DHT22;9834;48.076;11.878;2022-12-18T06:30:33;-4.80;99.90
19397;DHT22;9834;48.076;11.878;2022-12-18T06:33:02;-4.80;99.90
19397;DHT22;9834;48.076;11.878;2022-12-18T06:35:29;-4.80;99.90
19397;DHT22;9834;48.076;11.878;2022-12-18T06:37:58;-4.80;99.90
19397;DHT22;9834;48.076;11.878;2022-12-18T06:40:27;-5.00;99.90
19397;DHT22;9834;48.076;11.878;2022-12-18T06:42:54;-5.00;99.90
19397;DHT22;9834;48.076;11.878;2022-12-18T06:45:21;-4.90;99.90
19397;DHT22;9834;48.076;11.878;2022-12-18T06:47:48;-4.90;99.90
19397;DHT22;9834;48.076;11.878;2022-12-18T06:50:16;-4.80;99.90
19397;DHT22;9834;48.076;11.878;2022-12-18T06:52:44;-4.80;99.90
19397;DHT22;9834;48.076;11.878;2022-12-18T06:55:11;-4.90;99.90
19397;DHT22;9834;48.076;11.878;2022-12-18T06:57:38;-4.90;99.90
19397;DHT22;9834;48.076;11.878;2022-12-18T07:00:06;-5.00;99.90
19397;DHT22;9834;48.076;11.878;2022-12-18T07:02:34;-5.00;99.90
19397;DHT22;9834;48.076;11.878;2022-12-18T07:05:01;-4.90;99.90
19397;DHT22;9834;48.076;11.878;2022-12-18T07:07:29;-4.90;99.90
19397;DHT22;9834;48.076;11.878;2022-12-18T07:09:56;-4.80;99.90
19397;DHT22;9834;48.076;11.878;2022-12-18T07:12:23;-4.90;99.90
19397;DHT22;9834;48.076;11.878;2022-12-18T07:14:50;-4.80;99.90
19397;DHT22;9834;48.076;11.878;2022-12-18T07:17:17;-4.90;99.90
19397;DHT22;9834;48.076;11.878;2022-12-18T07:19:44;-4.90;99.90
19397;DHT22;9834;48.076;11.878;2022-12-18T07:22:11;-4.90;99.90
19397;DHT22;9834;48.076;11.878;2022-12-18T07:24:40;-4.80;99.90
19397;DHT22;9834;48.076;11.878;2022-12-18T07:27:07;-4.80;99.90
19397;DHT22;9834;48.076;11.878;2022-12-18T07:29:34;-4.70;99.90
19397;DHT22;9834;48.076;11.878;2022-12-18T07:32:01;-4.70;99.90
19397;DHT22;9834;48.076;11.878;2022-12-18T07:34:28;-4.70;99.90
19397;DHT22;9834;48.076;11.878;2022-12-18T07:36:55;-4.70;99.90
19397;DHT22;9834;48.076;11.878;2022-12-18T07:39:23;-4.70;99.90
19397;DHT22;9834;48.076;11.878;2022-12-18T07:41:52;-4.70;99.90
19397;DHT22;9834;48.076;11.878;2022-12-18T07:44:33;-4.60;99.90
19397;DHT22;9834;48.076;11.878;2022-12-18T07:47:00;-4.30;99.90
19397;DHT22;9834;48.076;11.878;2022-12-18T07:49:27;-4.50;99.90
19397;DHT22;9834;48.076;11.878;2022-12-18T07:51:55;-4.50;99.90
19397;DHT22;9834;48.076;11.878;2022-12-18T07:54:22;-4.50;99.90
19397;DHT22;9834;48.076;11.878;2022-12-18T07:56:49;-4.50;99.90
19397;DHT22;9834;48.076;11.878;2022-12-18T07:59:18;-4.40;99.90
19397;DHT22;9834;48.076;11.878;2022-12-18T08:01:45;-4.40;99.90
19397;DHT22;9834;48.076;11.878;2022-12-18T08:04:12;-4.50;99.90
19397;DHT22;9834;48.076;11.878;2022-12-18T08:06:39;-4.50;99.90
19397;DHT22;9834;48.076;11.878;2022-12-18T08:09:06;-4.50;99.90
19397;DHT22;9834;48.076;11.878;2022-12-18T08:11:34;-4.60;99.90
19397;DHT22;9834;48.076;11.878;2022-12-18T08:14:01;-4.50;99.90
19397;DHT22;9834;48.076;11.878;2022-12-18T08:16:29;-4.50;99.90
19397;DHT22;9834;48.076;11.878;2022-12-18T08:18:56;-4.60;99.90
19397;DHT22;9834;48.076;11.878;2022-12-18T08:21:25;-4.60;99.90
19397;DHT22;9834;48.076;11.878;2022-12-18T08:23:54;-4.60;99.90
19397;DHT22;9834;48.076;11.878;2022-12-18T08:26:22;-4.60;99.90
19397;DHT22;9834;48.076;11.878;2022-12-18T08:28:50;-4.50;99.90
19397;DHT22;9834;48.076;11.878;2022-12-18T08:31:17;-4.50;99.90
19397;DHT22;9834;48.076;11.878;2022-12-18T08:33:48;-4.50;99.90
19397;DHT22;9834;48.076;11.878;2022-12-18T08:36:16;-4.60;99.90
19397;DHT22;9834;48.076;11.878;2022-12-18T08:38:43;-4.60;99.90
19397;DHT22;9834;48.076;11.878;2022-12-18T08:41:11;-4.60;99.90
19397;DHT22;9834;48.076;11.878;2022-12-18T08:43:38;-4.50;99.90
19397;DHT22;9834;48.076;11.878;2022-12-18T08:46:25;-4.50;99.90
19397;DHT22;9834;48.076;11.878;2022-12-18T08:48:54;-4.50;99.90
19397;DHT22;9834;48.076;11.878;2022-12-18T08:51:21;-4.30;99.90
19397;DHT22;9834;48.076;11.878;2022-12-18T08:53:48;-4.20;99.90
19397;DHT22;9834;48.076;11.878;2022-12-18T08:56:15;-4.20;99.90
19397;DHT22;9834;48.076;11.878;2022-12-18T08:58:43;-4.10;99.90
19397;DHT22;9834;48.076;11.878;2022-12-18T09:01:11;-4.00;99.90
19397;DHT22;9834;48.076;11.878;2022-12-18T09:03:39;-3.90;99.90
19397;DHT22;9834;48.076;11.878;2022-12-18T09:06:08;-3.80;99.90
19397;DHT22;9834;48.076;11.878;2022-12-18T09:08:35;-3.70;99.90
19397;DHT22;9834;48.076;11.878;2022-12-18T09:11:03;-3.70;99.90
19397;DHT22;9834;48.076;11.878;2022-12-18T09:13:30;-3.60;99.90
19397;DHT22;9834;48.076;11.878;2022-12-18T09:15:58;-3.40;99.90
19397;DHT22;9834;48.076;11.878;2022-12-18T09:18:25;-3.50;99.90
19397;DHT22;9834;48.076;11.878;2022-12-18T09:20:53;-3.50;99.90
19397;DHT22;9834;48.076;11.878;2022-12-18T09:23:22;-3.50;99.90
19397;DHT22;9834;48.076;11.878;2022-12-18T09:25:49;-3.50;99.90
19397;DHT22;9834;48.076;11.878;2022-12-18T09:28:18;-3.50;99.90
19397;DHT22;9834;48.076;11.878;2022-12-18T09:30:47;-3.50;99.90
19397;DHT22;9834;48.076;11.878;2022-12-18T09:33:14;-3.20;99.90
19397;DHT22;9834;48.076;11.878;2022-12-18T09:35:43;-3.20;99.90
19397;DHT22;9834;48.076;11.878;2022-12-18T09:38:13;-3.10;99.90
19397;DHT22;9834;48.076;11.878;2022-12-18T09:40:43;-3.20;99.90
19397;DHT22;9834;48.076;11.878;2022-12-18T09:43:16;-3.20;99.90
19397;DHT22;9834;48.076;11.878;2022-12-18T09:45:47;-3.10;99.90
19397;DHT22;9834;48.076;11.878;2022-12-18T09:48:21;-3.00;99.90
19397;DHT22;9834;48.076;11.878;2022-12-18T09:50:50;-3.20;99.90
19397;DHT22;9834;48.076;11.878;2022-12-18T09:53:21;-3.20;99.90
19397;DHT22;9834;48.076;11.878;2022-12-18T09:55:51;-3.20;99.90
19397;DHT22;9834;48.076;11.878;2022-12-18T09:58:26;-3.00;99.90
19397;DHT22;9834;48.076;11.878;2022-12-18T10:00:55;-3.00;99.90
19397;DHT22;9834;48.076;11.878;2022-12-18T10:03:22;-2.90;99.90
19397;DHT22;9834;48.076;11.878;2022-12-18T10:05:57;-3.00;99.90
19397;DHT22;9834;48.076;11.878;2022-12-18T10:08:36;-2.90;99.90
19397;DHT22;9834;48.076;11.878;2022-12-18T10:11:21;-2.90;99.90
19397;DHT22;9834;48.076;11.878;2022-12-18T10:13:54;-2.90;99.90
19397;DHT22;9834;48.076;11.878;2022-12-18T10:16:27;-3.00;99.90
19397;DHT22;9834;48.076;11.878;2022-12-18T10:19:07;-2.90;99.90
19397;DHT22;9834;48.076;11.878;2022-12-18T10:21:41;-2.80;99.90
19397;DHT22;9834;48.076;11.878;2022-12-18T10:24:16;-2.70;99.90
19397;DHT22;9834;48.076;11.878;2022-12-18T10:26:47;-2.70;99.90
19397;DHT22;9834;48.076;11.878;2022-12-18T10:29:16;-2.50;99.90
19397;DHT22;9834;48.076;11.878;2022-12-18T10:31:43;-2.50;99.90
19397;DHT22;9834;48.076;11.878;2022-12-18T10:34:10;-2.60;99.90
19397;DHT22;9834;48.076;11.878;2022-12-18T10:36:42;-2.60;99.90
19397;DHT22;9834;48.076;11.878;2022-12-18T10:39:17;-2.40;99.90
19397;DHT22;9834;48.076;11.878;2022-12-18T10:41:44;-2.50;99.90
19397;DHT22;9834;48.076;11.878;2022-12-18T10:44:17;-2.30;99.90
19397;DHT22;9834;48.076;11.878;2022-12-18T10:46:45;-2.20;99.90
19397;DHT22;9834;48.076;11.878;2022-12-18T10:49:21;-2.10;99.90
19397;DHT22;9834;48.076;11.878;2022-12-18T10:51:49;-2.00;99.90
19397;DHT22;9834;48.076;11.878;2022-12-18T10:54:18;-2.10;99.90
19397;DHT22;9834;48.076;11.878;2022-12-18T10:56:46;-2.10;99.90
19397;DHT22;9834;48.076;11.878;2022-12-18T10:59:16;-2.00;99.90
19397;DHT22;9834;48.076;11.878;2022-12-18T11:01:49;-1.90;99.90
19397;DHT22;9834;48.076;11.878;2022-12-18T11:04:19;-1.80;99.90
19397;DHT22;9834;48.076;11.878;2022-12-18T11:06:56;-1.50;99.90
19397;DHT22;9834;48.076;11.878;2022-12-18T11:09:24;-1.50;99.90
19397;DHT22;9834;48.076;11.878;2022-12-18T11:11:52;-1.70;99.90
19397;DHT22;9834;48.076;11.878;2022-12-18T11:14:23;-1.70;99.90
19397;DHT22;9834;48.076;11.878;2022-12-18T11:16:52;-1.40;99.90
19397;DHT22;9834;48.076;11.878;2022-12-18T11:19:32;-1.50;99.90
19397;DHT22;9834;48.076;11.878;2022-12-18T11:22:00;-1.30;99.90
19397;DHT22;9834;48.076;11.878;2022-12-18T11:24:31;-1.20;99.90
19397;DHT22;9834;48.076;11.878;2022-12-18T11:27:01;-1.40;99.90
19397;DHT22;9834;48.076;11.878;2022-12-18T11:29:33;-1.40;99.90
19397;DHT22;9834;48.076;11.878;2022-12-18T11:32:29;-1.30;99.90
19397;DHT22;9834;48.076;11.878;2022-12-18T11:35:04;-1.20;99.90
19397;DHT22;9834;48.076;11.878;2022-12-18T11:37:35;-1.20;99.90
19397;DHT22;9834;48.076;11.878;2022-12-18T11:40:09;-0.90;99.90
19397;DHT22;9834;48.076;11.878;2022-12-18T11:42:43;-1.20;99.90
19397;DHT22;9834;48.076;11.878;2022-12-18T11:45:29;-1.20;99.90
19397;DHT22;9834;48.076;11.878;2022-12-18T11:48:01;-1.20;99.90
19397;DHT22;9834;48.076;11.878;2022-12-18T11:50:38;-1.00;99.90
19397;DHT22;9834;48.076;11.878;2022-12-18T11:53:11;-1.20;99.90
19397;DHT22;9834;48.076;11.878;2022-12-18T11:55:43;-1.20;99.90
19397;DHT22;9834;48.076;11.878;2022-12-18T11:58:22;-1.10;99.90
19397;DHT22;9834;48.076;11.878;2022-12-18T12:01:09;-1.10;99.90
19397;DHT22;9834;48.076;11.878;2022-12-18T12:03:57;-0.80;99.90
19397;DHT22;9834;48.076;11.878;2022-12-18T12:06:33;-1.10;99.90
19397;DHT22;9834;48.076;11.878;2022-12-18T12:09:10;-1.20;99.90
19397;DHT22;9834;48.076;11.878;2022-12-18T12:11:50;-1.40;99.90
19397;DHT22;9834;48.076;11.878;2022-12-18T12:17:19;-1.70;99.90
19397;DHT22;9834;48.076;11.878;2022-12-18T12:19:53;-2.00;99.90
19397;DHT22;9834;48.076;11.878;2022-12-18T12:22:27;-2.10;99.90
19397;DHT22;9834;48.076;11.878;2022-12-18T12:27:51;-1.90;99.90
19397;DHT22;9834;48.076;11.878;2022-12-18T12:30:24;-1.90;99.90
19397;DHT22;9834;48.076;11.878;2022-12-18T12:33:05;-1.80;99.90
19397;DHT22;9834;48.076;11.878;2022-12-18T12:35:44;-1.80;99.90
19397;DHT22;9834;48.076;11.878;2022-12-18T12:38:16;-2.10;99.90
19397;DHT22;9834;48.076;11.878;2022-12-18T12:40:49;-1.90;99.90
19397;DHT22;9834;48.076;11.878;2022-12-18T12:43:28;-1.90;99.90
19397;DHT22;9834;48.076;11.878;2022-12-18T12:46:00;-2.10;99.90
19397;DHT22;9834;48.076;11.878;2022-12-18T12:48:40;-2.20;99.90
19397;DHT22;9834;48.076;11.878;2022-12-18T12:51:13;-2.40;99.90
19397;DHT22;9834;48.076;11.878;2022-12-18T12:53:42;-2.30;99.90
19397;DHT22;9834;48.076;11.878;2022-12-18T12:56:11;-2.40;99.90
19397;DHT22;9834;48.076;11.878;2022-12-18T12:58:48;-2.40;99.90
19397;DHT22;9834;48.076;11.878;2022-12-18T13:01:24;-2.30;99.90
19397;DHT22;9834;48.076;11.878;2022-12-18T13:04:00;-2.30;99.90
19397;DHT22;9834;48.076;11.878;2022-12-18T13:06:39;-2.40;99.90
19397;DHT22;9834;48.076;11.878;2022-12-18T13:09:07;-2.40;99.90
19397;DHT22;9834;48.076;11.878;2022-12-18T13:11:38;-2.70;99.90
19397;DHT22;9834;48.076;11.878;2022-12-18T13:14:27;-2.50;99.90
19397;DHT22;9834;48.076;11.878;2022-12-18T13:17:26;-2.50;99.90
19397;DHT22;9834;48.076;11.878;2022-12-18T13:20:09;-2.40;99.90
19397;DHT22;9834;48.076;11.878;2022-12-18T13:22:38;-2.10;99.90
19397;DHT22;9834;48.076;11.878;2022-12-18T13:25:33;-2.00;99.90
19397;DHT22;9834;48.076;11.878;2022-12-18T13:28:07;-1.90;99.90
19397;DHT22;9834;48.076;11.878;2022-12-18T13:30:49;-1.80;99.90
19397;DHT22;9834;48.076;11.878;2022-12-18T13:33:49;-1.90;99.90
19397;DHT22;9834;48.076;11.878;2022-12-18T13:36:30;-2.20;99.90
19397;DHT22;9834;48.076;11.878;2022-12-18T13:39:31;-2.20;99.90
19397;DHT22;9834;48.076;11.878;2022-12-18T13:45:41;-2.50;99.90
19397;DHT22;9834;48.076;11.878;2022-12-18T13:48:20;-2.70;99.90
19397;DHT22;9834;48.076;11.878;2022-12-18T13:50:59;-2.80;99.90
19397;DHT22;9834;48.076;11.878;2022-12-18T13:53:33;-2.80;99.90
19397;DHT22;9834;48.076;11.878;2022-12-18T13:56:02;-2.90;99.90
19397;DHT22;9834;48.076;11.878;2022-12-18T13:58:29;-3.00;99.90
19397;DHT22;9834;48.076;11.878;2022-12-18T14:00:56;-2.90;99.90
19397;DHT22;9834;48.076;11.878;2022-12-18T14:03:26;-3.00;99.90
19397;DHT22;9834;48.076;11.878;2022-12-18T14:05:56;-3.20;99.90
19397;DHT22;9834;48.076;11.878;2022-12-18T14:08:23;-3.20;99.90
19397;DHT22;9834;48.076;11.878;2022-12-18T14:10:53;-2.90;99.90
19397;DHT22;9834;48.076;11.878;2022-12-18T14:13:24;-3.20;99.90
19397;DHT22;9834;48.076;11.878;2022-12-18T14:15:54;-3.20;99.90
19397;DHT22;9834;48.076;11.878;2022-12-18T14:18:24;-3.30;99.90
19397;DHT22;9834;48.076;11.878;2022-12-18T14:20:54;-3.40;99.90
19397;DHT22;9834;48.076;11.878;2022-12-18T14:23:28;-3.50;99.90
19397;DHT22;9834;48.076;11.878;2022-12-18T14:25:57;-3.50;99.90
19397;DHT22;9834;48.076;11.878;2022-12-18T14:28:24;-3.60;99.90
19397;DHT22;9834;48.076;11.878;2022-12-18T14:30:52;-3.60;99.90
19397;DHT22;9834;48.076;11.878;2022-12-18T14:33:21;-3.70;99.90
19397;DHT22;9834;48.076;11.878;2022-12-18T14:35:57;-3.40;99.90
19397;DHT22;9834;48.076;11.878;2022-12-18T14:38:28;-3.80;99.90
19397;DHT22;9834;48.076;11.878;2022-12-18T14:41:02;-3.80;99.90
19397;DHT22;9834;48.076;11.878;2022-12-18T14:43:31;-3.80;99.90
19397;DHT22;9834;48.076;11.878;2022-12-18T14:45:59;-3.90;99.90
19397;DHT22;9834;48.076;11.878;2022-12-18T14:48:36;-3.90;99.90
19397;DHT22;9834;48.076;11.878;2022-12-18T14:51:05;-3.80;99.90
19397;DHT22;9834;48.076;11.878;2022-12-18T14:53:36;-3.80;99.90
19397;DHT22;9834;48.076;11.878;2022-12-18T14:56:14;-3.90;99.90
19397;DHT22;9834;48.076;11.878;2022-12-18T14:58:48;-3.90;99.90
19397;DHT22;9834;48.076;11.878;2022-12-18T15:01:20;-4.00;99.90
19397;DHT22;9834;48.076;11.878;2022-12-18T15:03:48;-4.10;99.90
19397;DHT22;9834;48.076;11.878;2022-12-18T15:06:17;-4.10;99.90
19397;DHT22;9834;48.076;11.878;2022-12-18T15:08:44;-4.20;99.90
19397;DHT22;9834;48.076;11.878;2022-12-18T15:11:43;-4.30;99.90
19397;DHT22;9834;48.076;11.878;2022-12-18T15:14:41;-4.40;99.90
19397;DHT22;9834;48.076;11.878;2022-12-18T15:17:16;-4.40;99.90
19397;DHT22;9834;48.076;11.878;2022-12-18T15:19:45;-4.40;99.90
19397;DHT22;9834;48.076;11.878;2022-12-18T15:22:18;-4.20;99.90
19397;DHT22;9834;48.076;11.878;2022-12-18T15:24:46;-4.40;99.90
19397;DHT22;9834;48.076;11.878;2022-12-18T15:27:24;-4.50;99.90
19397;DHT22;9834;48.076;11.878;2022-12-18T15:30:16;-4.50;99.90
19397;DHT22;9834;48.076;11.878;2022-12-18T15:32:44;-4.60;99.90
19397;DHT22;9834;48.076;11.878;2022-12-18T15:35:15;-4.70;99.90
19397;DHT22;9834;48.076;11.878;2022-12-18T15:37:43;-4.60;99.90
19397;DHT22;9834;48.076;11.878;2022-12-18T15:40:13;-4.90;99.90
19397;DHT22;9834;48.076;11.878;2022-12-18T15:42:42;-4.90;99.90
19397;DHT22;9834;48.076;11.878;2022-12-18T15:45:27;-4.90;99.90
19397;DHT22;9834;48.076;11.878;2022-12-18T15:47:54;-5.00;99.90
19397;DHT22;9834;48.076;11.878;2022-12-18T15:50:22;-5.00;99.90
19397;DHT22;9834;48.076;11.878;2022-12-18T15:52:51;-5.00;99.90
19397;DHT22;9834;48.076;11.878;2022-12-18T15:55:20;-5.00;99.90
19397;DHT22;9834;48.076;11.878;2022-12-18T15:58:07;-5.10;99.90
19397;DHT22;9834;48.076;11.878;2022-12-18T16:00:36;-5.10;99.90
19397;DHT22;9834;48.076;11.878;2022-12-18T16:03:03;-5.00;99.90